EGNXEGKK

Guest
Details From EGNX - Nottingham East Midlands
To EGKK - London Gatwick
Flight Number -
Tags Generated
Created
Modified
Stats Distance 110 nm / 203 km
Max Altitude 0 ft / 0 m
Waypoints 2
Social Downloads 6
Likes 0
Share VATSIM

Download

Looking for another format? Having issues loading an existing format? Contact us
Advertisement - Login to hide

Notes

Generated

Route

EGNX EGKK

ID Type Via Altitude Latitude Longitude Leg Dist Tot Dist Heading (true) Name
O EGNX APT - 0 ft / 0 m 52.83061˚ -1.34957˚ - 0 nm - -
O EGKK APT - 0 ft / 0 m 51.14691˚ -0.21257˚ 109 nm 109 nm 157° / 158° -

Altitude Profile

Advertisement - Login to hide

EGNX

Details ICAO EGNX (EMA)
Name East Midlands
Region United Kingdom
Timezone Europe/London (UTC+1.0)
Stats Elevation 306 ft / 93 m (AMSL)
Location 52.830999° -1.328155°
Runways 1
Magnetic Variation 0.966° W

METAR

EGNX 261020Z 04011KT 010V090 9999 BKN048 16/13 Q1022

Decode

TAF

TAF AMD EGNX 260733Z 2607/2706 04007KT 7000 SCT009 TEMPO 2607/2609 4500 HZ BKN009 BECMG 2609/2612 9999 NSW FEW025 PROB30 TEMPO 2612/2616 8000 SHRA TEMPO 2700/2706 6000 SHRA PROB30 TEMPO 2700/2706 05015G25KT 2000 +SHRA TSGR

Decode

Departure Runways

ID Width Length Bearing (true) Bearing (mag) Surface Threshold Offset Overrun Length
09 151 ft / 46 m 9,462 ft / 2,884 m 88.25° 89.22° Asphalt 587 ft / 179 m 92 ft / 28 m
27 151 ft / 46 m 9,462 ft / 2,884 m 268.29° 269.26° Asphalt 423 ft / 129 m 98 ft / 30 m

EGKK

Details ICAO EGKK (LGW)
Name London Gatwick
Region United Kingdom
Timezone Europe/London (UTC+1.0)
Stats Elevation 196 ft / 60 m (AMSL)
Location 51.148753° -0.192472°
Runways 2
Magnetic Variation 0.367° W

METAR

EGKK 261020Z 07011KT 8000 FEW017 22/17 Q1018

Decode

TAF

TAF AMD EGKK 260733Z 2607/2712 04010KT 2000 HZ SCT008 PROB30 2607/2611 +SHRA BKN008 BKN040CB BECMG 2608/2611 9999 NSW SCT025 PROB40 TEMPO 2618/2707 06015G25KT 4000 +TSRA BKN014 BKN040CB BECMG 2706/2709 12008KT

Decode

Destination Runways

ID Width Length Bearing (true) Bearing (mag) Surface Threshold Offset Overrun Length
08L 148 ft / 45 m 8,377 ft / 2,553 m 77.69° 78.06° Asphalt 1,053 ft / 321 m 0 ft / 0 m
08R 148 ft / 45 m 10,341 ft / 3,152 m 77.59° 77.96° Asphalt 1,289 ft / 393 m 0 ft / 0 m
26L 148 ft / 45 m 10,341 ft / 3,152 m 257.63° 258.00° Asphalt 879 ft / 268 m 600 ft / 183 m
26R 148 ft / 45 m 8,377 ft / 2,553 m 257.71° 258.08° Asphalt 1,365 ft / 416 m 0 ft / 0 m

Approach Navaids

Runway Type Ident Frequency Range Bearing (true) Bearing (mag) Slope Elevation
08R Localiser IGG 110.90 MHz 18 nm / 33 km 77.66° 78.03° - 196 ft / 60 m (AMSL)
08R Glidescope IGG 110.90 MHz 10 nm / 19 km 77.61° 77.98° 3.00° 196 ft / 60 m (AMSL)
08R DME IGG 110.90 MHz 18 nm / 33 km - - - 274 ft / 84 m (AMSL)
26L Localiser IWW 110.90 MHz 18 nm / 33 km 257.42° 257.78° - 196 ft / 60 m (AMSL)
26L Glidescope IWW 110.90 MHz 10 nm / 19 km 257.61° 257.98° 3.00° 196 ft / 60 m (AMSL)
26L DME IWW 110.90 MHz 18 nm / 33 km - - - 274 ft / 84 m (AMSL)

Popular Alternatives